sensor_id;sensor_type;location;lat;lon;timestamp;P1;durP1;ratioP1;P2;durP2;ratioP2
73675;SDS011;61975;48.660;10.164;2023-09-18T00:01:36;7.03;;;4.05;;
73675;SDS011;61975;48.660;10.164;2023-09-18T00:04:04;7.37;;;3.60;;
73675;SDS011;61975;48.660;10.164;2023-09-18T00:06:30;6.30;;;3.22;;
73675;SDS011;61975;48.660;10.164;2023-09-18T00:08:57;5.90;;;3.33;;
73675;SDS011;61975;48.660;10.164;2023-09-18T00:11:23;6.10;;;3.50;;
73675;SDS011;61975;48.660;10.164;2023-09-18T00:13:48;7.47;;;3.37;;
73675;SDS011;61975;48.660;10.164;2023-09-18T00:16:13;6.83;;;3.40;;
73675;SDS011;61975;48.660;10.164;2023-09-18T00:18:39;6.83;;;3.10;;
73675;SDS011;61975;48.660;10.164;2023-09-18T00:21:04;5.67;;;3.27;;
73675;SDS011;61975;48.660;10.164;2023-09-18T00:23:31;6.30;;;3.47;;
73675;SDS011;61975;48.660;10.164;2023-09-18T00:25:57;6.60;;;3.27;;
73675;SDS011;61975;48.660;10.164;2023-09-18T00:28:22;6.77;;;3.33;;
73675;SDS011;61975;48.660;10.164;2023-09-18T00:30:48;5.77;;;3.30;;
73675;SDS011;61975;48.660;10.164;2023-09-18T00:33:14;6.93;;;3.40;;
73675;SDS011;61975;48.660;10.164;2023-09-18T00:35:40;7.50;;;3.47;;
73675;SDS011;61975;48.660;10.164;2023-09-18T00:38:05;10.83;;;3.80;;
73675;SDS011;61975;48.660;10.164;2023-09-18T00:40:32;6.30;;;3.47;;
73675;SDS011;61975;48.660;10.164;2023-09-18T00:42:57;6.00;;;3.28;;
73675;SDS011;61975;48.660;10.164;2023-09-18T00:45:23;6.30;;;3.40;;
73675;SDS011;61975;48.660;10.164;2023-09-18T00:47:49;6.53;;;3.33;;
73675;SDS011;61975;48.660;10.164;2023-09-18T00:50:14;7.30;;;3.30;;
73675;SDS011;61975;48.660;10.164;2023-09-18T00:52:40;7.00;;;3.30;;
73675;SDS011;61975;48.660;10.164;2023-09-18T00:55:06;7.38;;;3.50;;
73675;SDS011;61975;48.660;10.164;2023-09-18T00:57:33;6.30;;;3.60;;
73675;SDS011;61975;48.660;10.164;2023-09-18T00:59:59;6.75;;;3.20;;
73675;SDS011;61975;48.660;10.164;2023-09-18T01:02:24;7.88;;;3.40;;
73675;SDS011;61975;48.660;10.164;2023-09-18T01:04:51;7.30;;;3.17;;
73675;SDS011;61975;48.660;10.164;2023-09-18T01:07:17;8.43;;;3.42;;
73675;SDS011;61975;48.660;10.164;2023-09-18T01:09:43;6.53;;;3.37;;
73675;SDS011;61975;48.660;10.164;2023-09-18T01:15:07;7.70;;;3.90;;
73675;SDS011;61975;48.660;10.164;2023-09-18T01:17:36;8.73;;;3.97;;
73675;SDS011;61975;48.660;10.164;2023-09-18T01:20:03;7.90;;;3.92;;
73675;SDS011;61975;48.660;10.164;2023-09-18T01:22:31;7.55;;;3.70;;
73675;SDS011;61975;48.660;10.164;2023-09-18T01:24:57;8.30;;;3.70;;
73675;SDS011;61975;48.660;10.164;2023-09-18T01:27:22;7.28;;;3.47;;
73675;SDS011;61975;48.660;10.164;2023-09-18T01:29:48;7.07;;;3.67;;
73675;SDS011;61975;48.660;10.164;2023-09-18T01:32:14;5.95;;;3.38;;
73675;SDS011;61975;48.660;10.164;2023-09-18T01:34:41;6.10;;;3.60;;
73675;SDS011;61975;48.660;10.164;2023-09-18T01:37:08;5.97;;;3.25;;
73675;SDS011;61975;48.660;10.164;2023-09-18T01:39:35;6.63;;;3.45;;
73675;SDS011;61975;48.660;10.164;2023-09-18T01:42:02;6.57;;;3.40;;
73675;SDS011;61975;48.660;10.164;2023-09-18T01:44:31;7.00;;;3.33;;
73675;SDS011;61975;48.660;10.164;2023-09-18T01:46:58;6.75;;;3.60;;
73675;SDS011;61975;48.660;10.164;2023-09-18T01:49:35;6.28;;;3.40;;
73675;SDS011;61975;48.660;10.164;2023-09-18T01:52:03;6.05;;;3.50;;
73675;SDS011;61975;48.660;10.164;2023-09-18T01:54:30;6.50;;;3.67;;
73675;SDS011;61975;48.660;10.164;2023-09-18T01:56:56;7.03;;;3.60;;
73675;SDS011;61975;48.660;10.164;2023-09-18T01:59:22;7.65;;;3.92;;
73675;SDS011;61975;48.660;10.164;2023-09-18T02:01:48;5.82;;;3.30;;
73675;SDS011;61975;48.660;10.164;2023-09-18T02:04:14;6.40;;;3.63;;
73675;SDS011;61975;48.660;10.164;2023-09-18T02:06:40;6.80;;;3.45;;
73675;SDS011;61975;48.660;10.164;2023-09-18T02:09:06;6.40;;;3.30;;
73675;SDS011;61975;48.660;10.164;2023-09-18T02:11:39;5.68;;;3.25;;
73675;SDS011;61975;48.660;10.164;2023-09-18T02:14:06;6.43;;;3.75;;
73675;SDS011;61975;48.660;10.164;2023-09-18T02:16:33;7.40;;;3.57;;
73675;SDS011;61975;48.660;10.164;2023-09-18T02:18:59;6.38;;;3.60;;
73675;SDS011;61975;48.660;10.164;2023-09-18T02:21:24;6.00;;;3.53;;
73675;SDS011;61975;48.660;10.164;2023-09-18T02:23:51;8.43;;;3.90;;
73675;SDS011;61975;48.660;10.164;2023-09-18T02:26:20;7.03;;;4.07;;
73675;SDS011;61975;48.660;10.164;2023-09-18T02:28:45;7.32;;;3.85;;
73675;SDS011;61975;48.660;10.164;2023-09-18T02:31:11;6.57;;;3.60;;
73675;SDS011;61975;48.660;10.164;2023-09-18T02:33:37;8.33;;;4.20;;
73675;SDS011;61975;48.660;10.164;2023-09-18T02:36:03;6.15;;;3.53;;
73675;SDS011;61975;48.660;10.164;2023-09-18T02:38:29;6.38;;;3.67;;
73675;SDS011;61975;48.660;10.164;2023-09-18T02:40:55;6.43;;;3.80;;
73675;SDS011;61975;48.660;10.164;2023-09-18T02:43:22;6.20;;;3.35;;
73675;SDS011;61975;48.660;10.164;2023-09-18T02:45:47;6.40;;;3.83;;
73675;SDS011;61975;48.660;10.164;2023-09-18T02:48:13;6.93;;;3.53;;
73675;SDS011;61975;48.660;10.164;2023-09-18T02:50:39;6.70;;;3.47;;
73675;SDS011;61975;48.660;10.164;2023-09-18T02:53:05;6.50;;;3.63;;
73675;SDS011;61975;48.660;10.164;2023-09-18T02:55:32;6.50;;;3.83;;
73675;SDS011;61975;48.660;10.164;2023-09-18T02:57:57;7.70;;;3.80;;
73675;SDS011;61975;48.660;10.164;2023-09-18T03:00:23;6.55;;;3.88;;
73675;SDS011;61975;48.660;10.164;2023-09-18T03:02:49;6.67;;;3.83;;
73675;SDS011;61975;48.660;10.164;2023-09-18T03:05:14;6.40;;;3.70;;
73675;SDS011;61975;48.660;10.164;2023-09-18T03:07:40;6.87;;;3.60;;
73675;SDS011;61975;48.660;10.164;2023-09-18T03:10:05;5.87;;;3.40;;
73675;SDS011;61975;48.660;10.164;2023-09-18T03:12:31;8.27;;;3.80;;
73675;SDS011;61975;48.660;10.164;2023-09-18T03:14:57;8.40;;;3.97;;
73675;SDS011;61975;48.660;10.164;2023-09-18T03:17:22;9.00;;;4.33;;
73675;SDS011;61975;48.660;10.164;2023-09-18T03:19:48;7.17;;;4.03;;
73675;SDS011;61975;48.660;10.164;2023-09-18T03:22:14;7.05;;;3.67;;
73675;SDS011;61975;48.660;10.164;2023-09-18T03:24:39;7.87;;;3.60;;
73675;SDS011;61975;48.660;10.164;2023-09-18T03:27:05;6.47;;;3.67;;
73675;SDS011;61975;48.660;10.164;2023-09-18T03:29:30;8.18;;;3.90;;
73675;SDS011;61975;48.660;10.164;2023-09-18T03:31:55;8.07;;;4.13;;
73675;SDS011;61975;48.660;10.164;2023-09-18T03:34:23;6.22;;;3.78;;
73675;SDS011;61975;48.660;10.164;2023-09-18T03:36:51;7.95;;;4.35;;
73675;SDS011;61975;48.660;10.164;2023-09-18T03:39:17;6.28;;;3.80;;
73675;SDS011;61975;48.660;10.164;2023-09-18T03:41:42;6.47;;;3.87;;
73675;SDS011;61975;48.660;10.164;2023-09-18T03:44:07;7.00;;;3.83;;
73675;SDS011;61975;48.660;10.164;2023-09-18T03:46:35;7.75;;;4.07;;
73675;SDS011;61975;48.660;10.164;2023-09-18T03:49:00;8.53;;;4.60;;
73675;SDS011;61975;48.660;10.164;2023-09-18T03:51:25;8.13;;;4.25;;
73675;SDS011;61975;48.660;10.164;2023-09-18T03:53:51;6.55;;;3.90;;
73675;SDS011;61975;48.660;10.164;2023-09-18T03:56:16;7.13;;;3.90;;
73675;SDS011;61975;48.660;10.164;2023-09-18T03:58:42;10.63;;;4.20;;
73675;SDS011;61975;48.660;10.164;2023-09-18T04:01:07;7.70;;;4.17;;
73675;SDS011;61975;48.660;10.164;2023-09-18T04:03:33;6.38;;;3.67;;
73675;SDS011;61975;48.660;10.164;2023-09-18T04:05:58;6.73;;;4.07;;
73675;SDS011;61975;48.660;10.164;2023-09-18T04:08:23;7.43;;;4.23;;
73675;SDS011;61975;48.660;10.164;2023-09-18T04:10:49;7.40;;;4.37;;
73675;SDS011;61975;48.660;10.164;2023-09-18T04:13:14;6.60;;;3.90;;
73675;SDS011;61975;48.660;10.164;2023-09-18T04:15:40;7.43;;;4.00;;
73675;SDS011;61975;48.660;10.164;2023-09-18T04:18:05;7.20;;;4.07;;
73675;SDS011;61975;48.660;10.164;2023-09-18T04:20:31;7.87;;;4.53;;
73675;SDS011;61975;48.660;10.164;2023-09-18T04:25:46;7.13;;;4.10;;
73675;SDS011;61975;48.660;10.164;2023-09-18T04:28:12;6.22;;;3.85;;
73675;SDS011;61975;48.660;10.164;2023-09-18T04:30:39;6.72;;;4.15;;
73675;SDS011;61975;48.660;10.164;2023-09-18T04:33:04;7.23;;;3.90;;
73675;SDS011;61975;48.660;10.164;2023-09-18T04:35:30;7.00;;;3.90;;
73675;SDS011;61975;48.660;10.164;2023-09-18T04:37:56;6.90;;;4.20;;
73675;SDS011;61975;48.660;10.164;2023-09-18T04:40:23;8.00;;;3.72;;
73675;SDS011;61975;48.660;10.164;2023-09-18T04:42:49;7.20;;;4.23;;
73675;SDS011;61975;48.660;10.164;2023-09-18T04:45:15;6.78;;;4.07;;
73675;SDS011;61975;48.660;10.164;2023-09-18T04:47:41;7.60;;;5.47;;
73675;SDS011;61975;48.660;10.164;2023-09-18T04:50:06;7.20;;;4.15;;
73675;SDS011;61975;48.660;10.164;2023-09-18T04:52:34;7.53;;;4.50;;
73675;SDS011;61975;48.660;10.164;2023-09-18T04:55:02;8.52;;;4.10;;
73675;SDS011;61975;48.660;10.164;2023-09-18T04:57:30;8.43;;;4.68;;
73675;SDS011;61975;48.660;10.164;2023-09-18T04:59:56;7.30;;;4.00;;
73675;SDS011;61975;48.660;10.164;2023-09-18T05:02:21;8.37;;;4.13;;
73675;SDS011;61975;48.660;10.164;2023-09-18T05:04:46;7.23;;;4.37;;
73675;SDS011;61975;48.660;10.164;2023-09-18T05:07:12;7.32;;;4.43;;
73675;SDS011;61975;48.660;10.164;2023-09-18T05:09:37;7.17;;;4.33;;
73675;SDS011;61975;48.660;10.164;2023-09-18T05:12:04;8.32;;;4.65;;
73675;SDS011;61975;48.660;10.164;2023-09-18T05:14:30;7.47;;;4.40;;
73675;SDS011;61975;48.660;10.164;2023-09-18T05:16:55;8.57;;;4.60;;
73675;SDS011;61975;48.660;10.164;2023-09-18T05:19:20;6.93;;;4.18;;
73675;SDS011;61975;48.660;10.164;2023-09-18T05:21:46;8.83;;;4.40;;
73675;SDS011;61975;48.660;10.164;2023-09-18T05:24:13;7.22;;;4.13;;
73675;SDS011;61975;48.660;10.164;2023-09-18T05:26:38;7.60;;;4.23;;
73675;SDS011;61975;48.660;10.164;2023-09-18T05:29:03;8.40;;;4.63;;
73675;SDS011;61975;48.660;10.164;2023-09-18T05:31:29;7.23;;;4.37;;
73675;SDS011;61975;48.660;10.164;2023-09-18T05:33:55;12.38;;;4.78;;
73675;SDS011;61975;48.660;10.164;2023-09-18T05:36:21;8.65;;;4.43;;
73675;SDS011;61975;48.660;10.164;2023-09-18T05:38:46;9.23;;;4.87;;
73675;SDS011;61975;48.660;10.164;2023-09-18T05:41:11;11.67;;;4.67;;
73675;SDS011;61975;48.660;10.164;2023-09-18T05:43:37;10.37;;;4.30;;
73675;SDS011;61975;48.660;10.164;2023-09-18T05:46:02;8.50;;;4.70;;
73675;SDS011;61975;48.660;10.164;2023-09-18T05:48:28;8.40;;;4.70;;
73675;SDS011;61975;48.660;10.164;2023-09-18T05:50:53;8.73;;;4.47;;
73675;SDS011;61975;48.660;10.164;2023-09-18T05:53:19;7.18;;;4.28;;
73675;SDS011;61975;48.660;10.164;2023-09-18T05:55:45;8.38;;;4.28;;
73675;SDS011;61975;48.660;10.164;2023-09-18T05:58:10;8.63;;;4.50;;
73675;SDS011;61975;48.660;10.164;2023-09-18T06:00:36;6.97;;;4.23;;
73675;SDS011;61975;48.660;10.164;2023-09-18T06:03:02;11.43;;;4.70;;
73675;SDS011;61975;48.660;10.164;2023-09-18T06:05:28;7.72;;;4.25;;
73675;SDS011;61975;48.660;10.164;2023-09-18T06:07:56;8.30;;;4.95;;
73675;SDS011;61975;48.660;10.164;2023-09-18T06:10:21;8.80;;;4.67;;
73675;SDS011;61975;48.660;10.164;2023-09-18T06:12:47;7.73;;;4.57;;
73675;SDS011;61975;48.660;10.164;2023-09-18T06:15:12;9.45;;;4.22;;
73675;SDS011;61975;48.660;10.164;2023-09-18T06:17:38;8.57;;;4.30;;
73675;SDS011;61975;48.660;10.164;2023-09-18T06:20:05;9.82;;;4.32;;
73675;SDS011;61975;48.660;10.164;2023-09-18T06:22:37;8.63;;;4.57;;
73675;SDS011;61975;48.660;10.164;2023-09-18T06:25:04;8.70;;;4.38;;
73675;SDS011;61975;48.660;10.164;2023-09-18T06:27:30;8.53;;;4.47;;
73675;SDS011;61975;48.660;10.164;2023-09-18T06:29:58;8.60;;;4.85;;
73675;SDS011;61975;48.660;10.164;2023-09-18T06:32:24;10.65;;;4.93;;
73675;SDS011;61975;48.660;10.164;2023-09-18T06:34:50;8.53;;;4.53;;
73675;SDS011;61975;48.660;10.164;2023-09-18T06:37:15;7.20;;;4.37;;
73675;SDS011;61975;48.660;10.164;2023-09-18T06:39:41;8.20;;;4.40;;
73675;SDS011;61975;48.660;10.164;2023-09-18T06:42:06;10.40;;;4.20;;
73675;SDS011;61975;48.660;10.164;2023-09-18T06:44:31;8.10;;;4.73;;
73675;SDS011;61975;48.660;10.164;2023-09-18T06:46:57;8.07;;;4.37;;
73675;SDS011;61975;48.660;10.164;2023-09-18T06:49:22;8.80;;;4.77;;
73675;SDS011;61975;48.660;10.164;2023-09-18T06:51:47;8.50;;;4.63;;
73675;SDS011;61975;48.660;10.164;2023-09-18T06:54:13;9.70;;;5.03;;
73675;SDS011;61975;48.660;10.164;2023-09-18T06:56:38;7.47;;;4.40;;
73675;SDS011;61975;48.660;10.164;2023-09-18T06:59:04;7.67;;;4.90;;
73675;SDS011;61975;48.660;10.164;2023-09-18T07:01:29;6.93;;;4.43;;
73675;SDS011;61975;48.660;10.164;2023-09-18T07:03:56;7.30;;;4.28;;
73675;SDS011;61975;48.660;10.164;2023-09-18T07:06:22;6.60;;;4.07;;
73675;SDS011;61975;48.660;10.164;2023-09-18T07:08:48;9.63;;;4.37;;
73675;SDS011;61975;48.660;10.164;2023-09-18T07:11:16;11.95;;;4.30;;
73675;SDS011;61975;48.660;10.164;2023-09-18T07:13:42;11.88;;;5.25;;
73675;SDS011;61975;48.660;10.164;2023-09-18T07:16:08;9.27;;;4.40;;
73675;SDS011;61975;48.660;10.164;2023-09-18T07:18:34;9.73;;;4.20;;
73675;SDS011;61975;48.660;10.164;2023-09-18T07:21:00;6.47;;;4.03;;
73675;SDS011;61975;48.660;10.164;2023-09-18T07:23:25;8.10;;;4.23;;
73675;SDS011;61975;48.660;10.164;2023-09-18T07:25:50;8.85;;;4.40;;
73675;SDS011;61975;48.660;10.164;2023-09-18T07:28:16;9.03;;;4.80;;
73675;SDS011;61975;48.660;10.164;2023-09-18T07:30:43;9.38;;;4.90;;
73675;SDS011;61975;48.660;10.164;2023-09-18T07:33:12;8.67;;;4.57;;
73675;SDS011;61975;48.660;10.164;2023-09-18T07:35:41;9.85;;;4.60;;
73675;SDS011;61975;48.660;10.164;2023-09-18T07:38:06;9.87;;;4.40;;
73675;SDS011;61975;48.660;10.164;2023-09-18T07:40:33;7.07;;;4.25;;
73675;SDS011;61975;48.660;10.164;2023-09-18T07:42:58;9.43;;;4.10;;
73675;SDS011;61975;48.660;10.164;2023-09-18T07:45:24;6.40;;;3.90;;
73675;SDS011;61975;48.660;10.164;2023-09-18T07:47:49;7.20;;;3.70;;
73675;SDS011;61975;48.660;10.164;2023-09-18T07:50:15;6.60;;;3.67;;
73675;SDS011;61975;48.660;10.164;2023-09-18T07:52:40;7.60;;;4.10;;
73675;SDS011;61975;48.660;10.164;2023-09-18T07:55:06;6.77;;;3.80;;
73675;SDS011;61975;48.660;10.164;2023-09-18T07:57:31;7.85;;;4.07;;
73675;SDS011;61975;48.660;10.164;2023-09-18T07:59:59;7.70;;;3.77;;
73675;SDS011;61975;48.660;10.164;2023-09-18T08:02:32;8.13;;;4.15;;
73675;SDS011;61975;48.660;10.164;2023-09-18T08:04:57;10.43;;;4.40;;
73675;SDS011;61975;48.660;10.164;2023-09-18T08:07:22;8.03;;;4.30;;
73675;SDS011;61975;48.660;10.164;2023-09-18T08:09:48;7.60;;;4.03;;
73675;SDS011;61975;48.660;10.164;2023-09-18T08:12:14;10.60;;;4.50;;
73675;SDS011;61975;48.660;10.164;2023-09-18T08:14:39;6.72;;;3.70;;
73675;SDS011;61975;48.660;10.164;2023-09-18T08:17:05;8.60;;;3.50;;
73675;SDS011;61975;48.660;10.164;2023-09-18T08:19:32;8.10;;;4.22;;
73675;SDS011;61975;48.660;10.164;2023-09-18T08:21:58;6.43;;;3.60;;
73675;SDS011;61975;48.660;10.164;2023-09-18T08:24:24;6.22;;;3.70;;
73675;SDS011;61975;48.660;10.164;2023-09-18T08:26:50;7.07;;;3.60;;
73675;SDS011;61975;48.660;10.164;2023-09-18T08:29:15;7.25;;;3.70;;
73675;SDS011;61975;48.660;10.164;2023-09-18T08:31:41;6.13;;;3.20;;
73675;SDS011;61975;48.660;10.164;2023-09-18T08:34:07;8.38;;;3.45;;
73675;SDS011;61975;48.660;10.164;2023-09-18T08:36:32;10.33;;;3.77;;
73675;SDS011;61975;48.660;10.164;2023-09-18T08:38:58;7.93;;;3.70;;
73675;SDS011;61975;48.660;10.164;2023-09-18T08:41:24;13.53;;;4.20;;
73675;SDS011;61975;48.660;10.164;2023-09-18T08:43:54;8.20;;;3.92;;
73675;SDS011;61975;48.660;10.164;2023-09-18T08:46:24;6.72;;;3.70;;
73675;SDS011;61975;48.660;10.164;2023-09-18T08:48:50;11.75;;;3.88;;
73675;SDS011;61975;48.660;10.164;2023-09-18T08:51:16;9.52;;;3.70;;
73675;SDS011;61975;48.660;10.164;2023-09-18T08:53:43;8.07;;;3.73;;
73675;SDS011;61975;48.660;10.164;2023-09-18T08:56:09;7.40;;;3.75;;
73675;SDS011;61975;48.660;10.164;2023-09-18T08:58:36;8.40;;;3.80;;
73675;SDS011;61975;48.660;10.164;2023-09-18T09:01:05;9.63;;;4.18;;
73675;SDS011;61975;48.660;10.164;2023-09-18T09:03:34;6.57;;;3.60;;
73675;SDS011;61975;48.660;10.164;2023-09-18T09:06:00;13.20;;;3.47;;
73675;SDS011;61975;48.660;10.164;2023-09-18T09:08:29;6.63;;;3.07;;
73675;SDS011;61975;48.660;10.164;2023-09-18T09:10:55;6.65;;;3.20;;
73675;SDS011;61975;48.660;10.164;2023-09-18T09:13:22;7.40;;;2.95;;
73675;SDS011;61975;48.660;10.164;2023-09-18T09:15:51;6.72;;;2.90;;
73675;SDS011;61975;48.660;10.164;2023-09-18T09:18:19;6.53;;;2.90;;
73675;SDS011;61975;48.660;10.164;2023-09-18T09:20:57;8.85;;;3.25;;
73675;SDS011;61975;48.660;10.164;2023-09-18T09:26:20;5.37;;;2.43;;
73675;SDS011;61975;48.660;10.164;2023-09-18T09:28:47;5.82;;;2.70;;
73675;SDS011;61975;48.660;10.164;2023-09-18T09:31:23;6.22;;;2.38;;
73675;SDS011;61975;48.660;10.164;2023-09-18T09:33:52;7.50;;;2.10;;
73675;SDS011;61975;48.660;10.164;2023-09-18T09:36:22;3.72;;;1.60;;
73675;SDS011;61975;48.660;10.164;2023-09-18T09:38:49;4.67;;;1.63;;
73675;SDS011;61975;48.660;10.164;2023-09-18T09:41:20;6.78;;;1.40;;
73675;SDS011;61975;48.660;10.164;2023-09-18T09:43:46;4.22;;;1.08;;
73675;SDS011;61975;48.660;10.164;2023-09-18T09:46:15;3.60;;;0.93;;
73675;SDS011;61975;48.660;10.164;2023-09-18T09:49:03;5.15;;;1.00;;
73675;SDS011;61975;48.660;10.164;2023-09-18T09:51:31;3.85;;;1.00;;
73675;SDS011;61975;48.660;10.164;2023-09-18T09:53:58;5.65;;;1.00;;
73675;SDS011;61975;48.660;10.164;2023-09-18T09:59:29;3.80;;;1.00;;
73675;SDS011;61975;48.660;10.164;2023-09-18T10:01:58;3.17;;;1.10;;
73675;SDS011;61975;48.660;10.164;2023-09-18T10:04:23;3.20;;;0.90;;
73675;SDS011;61975;48.660;10.164;2023-09-18T10:06:54;4.70;;;0.93;;
73675;SDS011;61975;48.660;10.164;2023-09-18T10:09:23;4.13;;;0.95;;
73675;SDS011;61975;48.660;10.164;2023-09-18T10:11:54;4.47;;;1.08;;
73675;SDS011;61975;48.660;10.164;2023-09-18T10:14:29;3.40;;;1.00;;
73675;SDS011;61975;48.660;10.164;2023-09-18T10:17:11;5.95;;;1.00;;
73675;SDS011;61975;48.660;10.164;2023-09-18T10:22:27;3.75;;;0.90;;
73675;SDS011;61975;48.660;10.164;2023-09-18T10:25:21;2.70;;;0.70;;
73675;SDS011;61975;48.660;10.164;2023-09-18T10:27:49;3.50;;;1.00;;
73675;SDS011;61975;48.660;10.164;2023-09-18T10:30:17;3.88;;;0.85;;
73675;SDS011;61975;48.660;10.164;2023-09-18T10:32:44;7.33;;;0.90;;
73675;SDS011;61975;48.660;10.164;2023-09-18T10:35:11;5.22;;;0.80;;
73675;SDS011;61975;48.660;10.164;2023-09-18T10:37:41;2.80;;;0.80;;
73675;SDS011;61975;48.660;10.164;2023-09-18T10:40:08;3.13;;;0.63;;
73675;SDS011;61975;48.660;10.164;2023-09-18T10:42:35;4.13;;;0.75;;
73675;SDS011;61975;48.660;10.164;2023-09-18T10:45:03;3.87;;;0.60;;
73675;SDS011;61975;48.660;10.164;2023-09-18T10:47:30;5.07;;;0.70;;
73675;SDS011;61975;48.660;10.164;2023-09-18T10:49:56;3.17;;;0.60;;
73675;SDS011;61975;48.660;10.164;2023-09-18T10:52:21;2.93;;;0.70;;
73675;SDS011;61975;48.660;10.164;2023-09-18T10:54:47;3.13;;;0.70;;
73675;SDS011;61975;48.660;10.164;2023-09-18T10:57:12;4.67;;;0.70;;
73675;SDS011;61975;48.660;10.164;2023-09-18T10:59:43;3.47;;;0.60;;
73675;SDS011;61975;48.660;10.164;2023-09-18T11:02:09;2.20;;;0.67;;
73675;SDS011;61975;48.660;10.164;2023-09-18T11:04:35;2.90;;;0.70;;
73675;SDS011;61975;48.660;10.164;2023-09-18T11:07:01;2.97;;;0.60;;
73675;SDS011;61975;48.660;10.164;2023-09-18T11:09:29;2.10;;;0.60;;
73675;SDS011;61975;48.660;10.164;2023-09-18T11:16:57;2.35;;;0.60;;
73675;SDS011;61975;48.660;10.164;2023-09-18T11:19:22;3.97;;;1.03;;
73675;SDS011;61975;48.660;10.164;2023-09-18T11:21:49;2.83;;;0.90;;
73675;SDS011;61975;48.660;10.164;2023-09-18T11:24:32;3.15;;;0.70;;
73675;SDS011;61975;48.660;10.164;2023-09-18T11:26:58;3.40;;;0.80;;
73675;SDS011;61975;48.660;10.164;2023-09-18T11:29:24;3.05;;;0.60;;
73675;SDS011;61975;48.660;10.164;2023-09-18T11:31:54;2.40;;;0.60;;
73675;SDS011;61975;48.660;10.164;2023-09-18T11:34:25;2.55;;;0.52;;
73675;SDS011;61975;48.660;10.164;2023-09-18T11:36:58;3.22;;;0.70;;
73675;SDS011;61975;48.660;10.164;2023-09-18T11:39:37;3.72;;;0.70;;
73675;SDS011;61975;48.660;10.164;2023-09-18T11:42:10;3.28;;;0.60;;
73675;SDS011;61975;48.660;10.164;2023-09-18T11:44:38;2.60;;;0.60;;
73675;SDS011;61975;48.660;10.164;2023-09-18T11:47:07;2.40;;;0.40;;
73675;SDS011;61975;48.660;10.164;2023-09-18T11:49:53;2.35;;;0.50;;
73675;SDS011;61975;48.660;10.164;2023-09-18T11:52:23;2.45;;;0.50;;
73675;SDS011;61975;48.660;10.164;2023-09-18T11:54:50;2.55;;;0.50;;
73675;SDS011;61975;48.660;10.164;2023-09-18T11:57:19;2.93;;;0.50;;
73675;SDS011;61975;48.660;10.164;2023-09-18T11:59:45;2.72;;;0.70;;
73675;SDS011;61975;48.660;10.164;2023-09-18T12:02:24;2.58;;;0.50;;
73675;SDS011;61975;48.660;10.164;2023-09-18T12:04:53;2.50;;;0.57;;
73675;SDS011;61975;48.660;10.164;2023-09-18T12:07:19;2.88;;;0.60;;
73675;SDS011;61975;48.660;10.164;2023-09-18T12:09:45;2.27;;;0.60;;
73675;SDS011;61975;48.660;10.164;2023-09-18T12:12:10;3.47;;;0.60;;
73675;SDS011;61975;48.660;10.164;2023-09-18T12:14:39;2.75;;;0.70;;
73675;SDS011;61975;48.660;10.164;2023-09-18T12:17:07;2.70;;;0.70;;
73675;SDS011;61975;48.660;10.164;2023-09-18T12:19:33;3.85;;;0.80;;
73675;SDS011;61975;48.660;10.164;2023-09-18T12:22:00;3.70;;;0.70;;
73675;SDS011;61975;48.660;10.164;2023-09-18T12:24:26;3.20;;;0.80;;
73675;SDS011;61975;48.660;10.164;2023-09-18T12:26:52;3.53;;;0.80;;
73675;SDS011;61975;48.660;10.164;2023-09-18T12:29:22;3.58;;;0.85;;
73675;SDS011;61975;48.660;10.164;2023-09-18T12:31:47;4.38;;;0.77;;
73675;SDS011;61975;48.660;10.164;2023-09-18T12:34:16;5.10;;;1.10;;
73675;SDS011;61975;48.660;10.164;2023-09-18T12:36:48;3.15;;;1.10;;
73675;SDS011;61975;48.660;10.164;2023-09-18T12:39:15;5.50;;;1.15;;
73675;SDS011;61975;48.660;10.164;2023-09-18T12:41:41;4.32;;;1.20;;
73675;SDS011;61975;48.660;10.164;2023-09-18T12:44:12;4.88;;;1.23;;
73675;SDS011;61975;48.660;10.164;2023-09-18T12:46:39;5.70;;;1.50;;
73675;SDS011;61975;48.660;10.164;2023-09-18T12:49:18;4.40;;;1.52;;
73675;SDS011;61975;48.660;10.164;2023-09-18T12:51:58;3.72;;;1.55;;
73675;SDS011;61975;48.660;10.164;2023-09-18T12:54:41;5.60;;;1.55;;
73675;SDS011;61975;48.660;10.164;2023-09-18T12:57:19;3.28;;;1.30;;
73675;SDS011;61975;48.660;10.164;2023-09-18T12:59:45;5.40;;;1.63;;
73675;SDS011;61975;48.660;10.164;2023-09-18T13:02:15;5.03;;;1.40;;
73675;SDS011;61975;48.660;10.164;2023-09-18T13:04:47;4.00;;;1.20;;
73675;SDS011;61975;48.660;10.164;2023-09-18T13:07:16;3.63;;;1.33;;
73675;SDS011;61975;48.660;10.164;2023-09-18T13:09:42;4.30;;;1.60;;
73675;SDS011;61975;48.660;10.164;2023-09-18T13:12:08;6.00;;;1.38;;
73675;SDS011;61975;48.660;10.164;2023-09-18T13:17:22;5.57;;;1.23;;
73675;SDS011;61975;48.660;10.164;2023-09-18T13:19:49;4.38;;;1.10;;
73675;SDS011;61975;48.660;10.164;2023-09-18T13:22:22;3.40;;;1.00;;
73675;SDS011;61975;48.660;10.164;2023-09-18T13:24:54;3.88;;;1.50;;
73675;SDS011;61975;48.660;10.164;2023-09-18T13:27:20;4.28;;;1.10;;
73675;SDS011;61975;48.660;10.164;2023-09-18T13:29:46;2.50;;;1.10;;
73675;SDS011;61975;48.660;10.164;2023-09-18T13:32:11;3.30;;;1.20;;
73675;SDS011;61975;48.660;10.164;2023-09-18T13:34:36;2.93;;;1.10;;
73675;SDS011;61975;48.660;10.164;2023-09-18T13:37:04;3.30;;;1.00;;
73675;SDS011;61975;48.660;10.164;2023-09-18T13:39:29;2.97;;;1.20;;
73675;SDS011;61975;48.660;10.164;2023-09-18T13:41:55;3.57;;;1.07;;
73675;SDS011;61975;48.660;10.164;2023-09-18T13:44:21;4.47;;;1.20;;
73675;SDS011;61975;48.660;10.164;2023-09-18T13:46:47;3.50;;;1.20;;
73675;SDS011;61975;48.660;10.164;2023-09-18T13:49:12;3.93;;;1.17;;
73675;SDS011;61975;48.660;10.164;2023-09-18T13:51:38;3.23;;;1.17;;
73675;SDS011;61975;48.660;10.164;2023-09-18T13:54:03;4.23;;;1.43;;
73675;SDS011;61975;48.660;10.164;2023-09-18T13:56:29;3.37;;;1.00;;
73675;SDS011;61975;48.660;10.164;2023-09-18T13:58:57;4.97;;;1.13;;
73675;SDS011;61975;48.660;10.164;2023-09-18T14:01:23;3.92;;;1.20;;
73675;SDS011;61975;48.660;10.164;2023-09-18T14:03:50;5.10;;;1.50;;
73675;SDS011;61975;48.660;10.164;2023-09-18T14:06:16;4.85;;;1.60;;
73675;SDS011;61975;48.660;10.164;2023-09-18T14:08:42;3.00;;;1.20;;
73675;SDS011;61975;48.660;10.164;2023-09-18T14:11:07;4.43;;;1.27;;
73675;SDS011;61975;48.660;10.164;2023-09-18T14:13:33;4.40;;;1.20;;
73675;SDS011;61975;48.660;10.164;2023-09-18T14:15:58;3.27;;;1.23;;
73675;SDS011;61975;48.660;10.164;2023-09-18T14:18:24;5.93;;;1.45;;
73675;SDS011;61975;48.660;10.164;2023-09-18T14:20:50;4.47;;;1.40;;
73675;SDS011;61975;48.660;10.164;2023-09-18T14:23:15;3.67;;;1.13;;
73675;SDS011;61975;48.660;10.164;2023-09-18T14:25:40;3.45;;;1.10;;
73675;SDS011;61975;48.660;10.164;2023-09-18T14:28:06;3.13;;;1.03;;
73675;SDS011;61975;48.660;10.164;2023-09-18T14:30:32;3.37;;;1.20;;
73675;SDS011;61975;48.660;10.164;2023-09-18T14:32:58;4.65;;;1.33;;
73675;SDS011;61975;48.660;10.164;2023-09-18T14:35:26;3.25;;;1.15;;
73675;SDS011;61975;48.660;10.164;2023-09-18T14:37:51;3.60;;;1.23;;
73675;SDS011;61975;48.660;10.164;2023-09-18T14:40:17;2.80;;;1.17;;
73675;SDS011;61975;48.660;10.164;2023-09-18T14:42:42;3.30;;;1.30;;
73675;SDS011;61975;48.660;10.164;2023-09-18T14:45:08;3.90;;;1.27;;
73675;SDS011;61975;48.660;10.164;2023-09-18T14:47:34;2.83;;;1.02;;
73675;SDS011;61975;48.660;10.164;2023-09-18T14:49:59;3.37;;;1.40;;
73675;SDS011;61975;48.660;10.164;2023-09-18T14:52:26;3.70;;;1.25;;
73675;SDS011;61975;48.660;10.164;2023-09-18T14:54:51;3.93;;;1.37;;